createdAt,value
2022-09-12T00:01:51.401Z,14.22
2022-09-12T00:04:36.808Z,14.23
2022-09-12T00:07:21.695Z,14.08
2022-09-12T00:10:07.447Z,14.03
2022-09-12T00:12:53.217Z,13.96
2022-09-12T00:15:40.144Z,13.83
2022-09-12T00:18:25.610Z,13.85
2022-09-12T00:21:10.508Z,13.92
2022-09-12T00:23:56.143Z,13.82
2022-09-12T00:26:41.539Z,13.92
2022-09-12T00:29:26.475Z,13.89
2022-09-12T00:32:12.045Z,13.92
2022-09-12T00:34:57.340Z,13.60
2022-09-12T00:37:42.247Z,13.56
2022-09-12T00:40:27.622Z,13.48
2022-09-12T00:43:15.534Z,13.74
2022-09-12T00:46:21.504Z,13.68
2022-09-12T00:49:28.379Z,13.60
2022-09-12T00:52:24.038Z,13.47
2022-09-12T00:55:18.610Z,13.40
2022-09-12T00:58:16.764Z,13.41
2022-09-12T01:01:02.310Z,13.40
2022-09-12T01:03:48.055Z,13.40
2022-09-12T01:06:38.738Z,13.36
2022-09-12T01:09:25.373Z,13.21
2022-09-12T01:12:12.031Z,13.23
2022-09-12T01:14:57.370Z,13.21
2022-09-12T01:17:42.257Z,13.20
2022-09-12T01:21:06.524Z,13.19
2022-09-12T01:24:30.601Z,13.15
2022-09-12T01:27:19.152Z,13.19
2022-09-12T01:30:23.206Z,13.09
2022-09-12T01:33:20.569Z,13.14
2022-09-12T01:36:31.837Z,13.10
2022-09-12T01:39:30.179Z,13.36
2022-09-12T01:42:44.456Z,12.97
2022-09-12T01:45:39.901Z,12.90
2022-09-12T01:48:35.502Z,12.96
2022-09-12T01:51:35.996Z,12.77
2022-09-12T01:54:30.933Z,12.74
2022-09-12T01:57:29.849Z,12.80
2022-09-12T02:00:15.411Z,12.70
2022-09-12T02:03:14.853Z,12.65
2022-09-12T02:06:08.154Z,12.64
2022-09-12T02:09:00.893Z,12.73
2022-09-12T02:11:48.205Z,12.68
2022-09-12T02:14:42.203Z,12.68
2022-09-12T02:17:30.670Z,12.73
2022-09-12T02:20:48.020Z,12.76
2022-09-12T02:23:36.776Z,12.71
2022-09-12T02:26:28.777Z,12.77
2022-09-12T02:29:13.872Z,12.76
2022-09-12T02:32:04.698Z,12.77
2022-09-12T02:34:55.996Z,12.69
2022-09-12T02:37:56.202Z,12.60
2022-09-12T02:40:41.461Z,12.59
2022-09-12T02:43:26.462Z,12.53
2022-09-12T02:46:18.614Z,12.52
2022-09-12T02:49:03.715Z,12.57
2022-09-12T02:51:49.456Z,12.52
2022-09-12T02:54:34.778Z,12.57
2022-09-12T02:57:23.024Z,12.50
2022-09-12T03:00:09.751Z,12.47
2022-09-12T03:03:23.574Z,12.50
2022-09-12T03:06:26.660Z,12.09
2022-09-12T03:09:39.088Z,11.87
2022-09-12T03:12:30.507Z,12.00
2022-09-12T03:15:46.552Z,12.24
2022-09-12T03:18:50.357Z,12.07
2022-09-12T03:21:54.527Z,12.10
2022-09-12T03:25:05.736Z,12.14
2022-09-12T03:28:03.267Z,12.11
2022-09-12T03:30:49.974Z,12.22
2022-09-12T03:33:35.109Z,12.25
2022-09-12T03:36:23.929Z,12.30
2022-09-12T03:39:08.913Z,12.23
2022-09-12T03:41:55.574Z,12.17
2022-09-12T03:44:40.749Z,12.15
2022-09-12T03:47:25.703Z,12.08
2022-09-12T03:50:10.770Z,12.32
2022-09-12T03:52:58.404Z,12.28
2022-09-12T03:55:43.560Z,12.06
2022-09-12T03:58:30.749Z,11.94
2022-09-12T04:01:18.546Z,11.89
2022-09-12T04:04:03.832Z,11.79
2022-09-12T04:06:48.814Z,11.96
2022-09-12T04:09:34.135Z,11.76
2022-09-12T04:12:20.117Z,11.78
2022-09-12T04:15:06.595Z,11.69
2022-09-12T04:17:51.756Z,11.76
2022-09-12T04:20:37.159Z,11.70
2022-09-12T04:23:22.725Z,11.80
2022-09-12T04:26:08.057Z,11.87
2022-09-12T04:28:54.201Z,11.76
2022-09-12T04:31:39.226Z,11.66
2022-09-12T04:34:24.578Z,11.74
2022-09-12T04:37:09.781Z,11.80
2022-09-12T04:39:55.382Z,11.66
2022-09-12T04:42:40.542Z,11.72
2022-09-12T04:45:25.966Z,11.67
2022-09-12T04:48:11.313Z,11.70
2022-09-12T04:50:56.640Z,11.62
2022-09-12T04:53:42.883Z,11.70
2022-09-12T04:56:29.408Z,11.81
2022-09-12T04:59:17.036Z,11.82
2022-09-12T05:02:02.339Z,11.56
2022-09-12T05:04:47.645Z,11.31
2022-09-12T05:07:32.962Z,11.29
2022-09-12T05:10:18.027Z,11.39
2022-09-12T05:13:03.058Z,11.51
2022-09-12T05:15:57.178Z,11.64
2022-09-12T05:18:43.922Z,11.52
2022-09-12T05:21:29.346Z,11.64
2022-09-12T05:24:14.313Z,11.62
2022-09-12T05:26:59.584Z,11.70
2022-09-12T05:29:44.400Z,11.78
2022-09-12T05:32:31.650Z,11.77
2022-09-12T05:35:16.866Z,11.83
2022-09-12T05:38:01.807Z,12.06
2022-09-12T05:40:46.828Z,12.09
2022-09-12T05:43:33.221Z,12.17
2022-09-12T05:46:20.685Z,12.23
2022-09-12T05:49:08.637Z,12.43
2022-09-12T05:51:54.107Z,12.48
2022-09-12T05:54:39.738Z,12.53
2022-09-12T05:57:24.850Z,12.70
2022-09-12T06:00:10.573Z,12.89
2022-09-12T06:02:55.840Z,12.97
2022-09-12T06:05:41.266Z,13.09
2022-09-12T06:08:26.116Z,13.04
2022-09-12T06:11:14.211Z,13.14
2022-09-12T06:14:00.538Z,13.32
2022-09-12T06:16:46.073Z,13.57
2022-09-12T06:19:31.396Z,13.59
2022-09-12T06:22:16.737Z,13.71
2022-09-12T06:25:01.713Z,14.06
2022-09-12T06:27:46.924Z,14.17
2022-09-12T06:30:32.109Z,14.37
2022-09-12T06:33:17.256Z,14.68
2022-09-12T06:36:12.191Z,14.96
2022-09-12T06:39:03.022Z,15.12
2022-09-12T06:41:50.421Z,15.14
2022-09-12T06:44:35.271Z,15.24
2022-09-12T06:47:20.638Z,15.49
2022-09-12T06:50:06.701Z,15.11
2022-09-12T06:52:51.869Z,15.50
2022-09-12T06:55:37.367Z,15.49
2022-09-12T06:58:22.708Z,15.53
2022-09-12T07:01:20.005Z,15.99
2022-09-12T07:04:05.657Z,16.34
2022-09-12T07:06:50.934Z,16.24
2022-09-12T07:09:36.305Z,16.25
2022-09-12T07:12:21.329Z,16.36
2022-09-12T07:15:06.658Z,16.96
2022-09-12T07:17:51.618Z,17.08
2022-09-12T07:20:36.653Z,17.48
2022-09-12T07:23:22.440Z,18.14
2022-09-12T07:26:10.435Z,18.28
2022-09-12T07:29:08.294Z,18.22
2022-09-12T07:32:01.883Z,18.53
2022-09-12T07:34:47.163Z,18.99
2022-09-12T07:37:32.130Z,18.77
2022-09-12T07:40:17.581Z,18.75
2022-09-12T07:43:02.850Z,18.62
2022-09-12T07:45:48.341Z,18.51
2022-09-12T07:48:33.667Z,18.48
2022-09-12T07:51:20.265Z,18.71
2022-09-12T07:54:09.007Z,18.53
2022-09-12T07:56:54.375Z,18.39
2022-09-12T07:59:52.573Z,18.23
2022-09-12T08:02:38.519Z,18.26
2022-09-12T08:05:23.818Z,18.52
2022-09-12T08:08:08.896Z,18.75
2022-09-12T08:10:57.661Z,19.07
2022-09-12T08:13:44.292Z,19.02
2022-09-12T08:16:30.977Z,18.91
2022-09-12T08:19:16.299Z,19.12
2022-09-12T08:22:01.712Z,19.03
2022-09-12T08:24:46.576Z,18.72
2022-09-12T08:27:31.546Z,18.51
2022-09-12T08:30:16.507Z,18.38
2022-09-12T08:33:01.706Z,18.14
2022-09-12T08:35:47.356Z,18.27
2022-09-12T08:38:32.949Z,18.39
2022-09-12T08:41:18.065Z,18.45
2022-09-12T08:44:33.899Z,18.59
2022-09-12T08:47:38.520Z,18.72
2022-09-12T08:50:23.781Z,18.72
2022-09-12T08:53:21.711Z,18.51
2022-09-12T08:56:08.807Z,18.72
2022-09-12T08:58:53.788Z,19.00
2022-09-12T09:01:43.956Z,18.99
2022-09-12T09:04:35.292Z,19.27
2022-09-12T09:07:51.918Z,19.54
2022-09-12T09:11:02.722Z,19.50
2022-09-12T09:13:50.785Z,19.45
2022-09-12T09:16:41.186Z,19.48
2022-09-12T09:19:32.499Z,19.58
2022-09-12T09:22:31.221Z,19.53
2022-09-12T09:25:26.557Z,19.36
2022-09-12T09:28:19.242Z,19.53
2022-09-12T09:31:04.508Z,19.61
2022-09-12T09:33:53.011Z,19.70
2022-09-12T09:36:41.101Z,19.72
2022-09-12T09:39:29.472Z,19.40
2022-09-12T09:42:29.662Z,19.54
2022-09-12T09:45:18.771Z,19.74
2022-09-12T09:48:09.976Z,19.72
2022-09-12T09:50:58.748Z,19.74
2022-09-12T09:54:07.030Z,19.96
2022-09-12T09:56:52.568Z,20.12
2022-09-12T09:59:37.758Z,19.74
2022-09-12T10:02:24.288Z,19.62
2022-09-12T10:05:17.026Z,19.65
2022-09-12T10:08:03.617Z,19.67
2022-09-12T10:10:53.673Z,19.84
2022-09-12T10:13:50.823Z,20.03
2022-09-12T10:16:51.194Z,20.09
2022-09-12T10:19:39.083Z,20.24
2022-09-12T10:22:27.398Z,19.93
2022-09-12T10:25:18.209Z,19.43
2022-09-12T10:28:03.312Z,19.54
2022-09-12T10:30:54.109Z,19.75
2022-09-12T10:33:46.468Z,19.86
2022-09-12T10:36:37.120Z,20.15
2022-09-12T10:39:22.377Z,20.38
2022-09-12T10:42:14.279Z,20.72
2022-09-12T10:44:59.776Z,20.87
2022-09-12T10:47:45.971Z,20.96
2022-09-12T10:50:41.173Z,21.10
2022-09-12T10:53:30.984Z,21.01
2022-09-12T10:56:20.607Z,20.69
2022-09-12T10:59:23.144Z,21.05
2022-09-12T11:02:26.363Z,21.01
2022-09-12T11:05:22.845Z,20.88
2022-09-12T11:08:14.262Z,20.85
2022-09-12T11:11:16.320Z,21.06
2022-09-12T11:14:12.111Z,21.32
2022-09-12T11:17:36.746Z,21.47
2022-09-12T11:21:06.334Z,21.46
2022-09-12T11:23:57.446Z,21.24
2022-09-12T11:26:42.335Z,21.62
2022-09-12T11:29:36.394Z,21.62
2022-09-12T11:32:46.829Z,21.67
2022-09-12T11:35:34.662Z,21.62
2022-09-12T11:38:47.070Z,21.85
2022-09-12T11:41:42.087Z,21.98
2022-09-12T11:44:38.706Z,22.16
2022-09-12T11:47:29.104Z,22.11
2022-09-12T11:50:31.602Z,22.12
2022-09-12T11:53:24.990Z,22.23
2022-09-12T11:56:18.487Z,22.48
2022-09-12T11:59:13.819Z,22.20
2022-09-12T12:02:00.116Z,22.48
2022-09-12T12:05:06.015Z,23.38
2022-09-12T12:07:54.997Z,23.91
2022-09-12T12:10:49.087Z,23.21
2022-09-12T12:13:49.702Z,22.98
2022-09-12T12:16:38.615Z,23.43
2022-09-12T12:19:35.845Z,23.37
2022-09-12T12:22:24.727Z,24.52
2022-09-12T12:25:29.703Z,24.05
2022-09-12T12:28:43.898Z,24.94
2022-09-12T12:31:29.035Z,24.85
2022-09-12T12:34:27.364Z,25.53
2022-09-12T12:37:18.835Z,25.34
2022-09-12T12:40:23.032Z,26.24
2022-09-12T12:43:29.479Z,26.03
2022-09-12T12:46:20.720Z,26.74
2022-09-12T12:49:19.108Z,25.82
2022-09-12T12:52:04.386Z,25.56
2022-09-12T12:54:55.300Z,24.52
2022-09-12T12:57:54.050Z,24.37
2022-09-12T13:00:40.490Z,23.60
2022-09-12T13:03:31.830Z,23.62
2022-09-12T13:06:34.134Z,24.06
2022-09-12T13:09:51.271Z,25.57
2022-09-12T13:12:45.671Z,25.67
2022-09-12T13:15:37.017Z,25.46
2022-09-12T13:18:53.201Z,26.78
2022-09-12T13:21:38.874Z,25.27
2022-09-12T13:24:23.846Z,25.61
2022-09-12T13:27:21.788Z,24.83
2022-09-12T13:30:15.243Z,24.63
2022-09-12T13:33:09.853Z,24.51
2022-09-12T13:36:38.180Z,24.53
2022-09-12T13:39:48.982Z,24.13
2022-09-12T13:42:48.373Z,23.96
2022-09-12T13:45:37.445Z,23.42
2022-09-12T13:48:25.302Z,23.74
2022-09-12T13:51:22.945Z,23.65
2022-09-12T13:54:07.861Z,23.79
2022-09-12T13:56:53.406Z,23.77
2022-09-12T13:59:42.202Z,23.84
2022-09-12T14:02:29.364Z,23.70
2022-09-12T14:05:22.080Z,23.93
2022-09-12T14:08:08.463Z,24.01
2022-09-12T14:10:54.020Z,23.84
2022-09-12T14:13:39.346Z,23.58
2022-09-12T14:16:25.082Z,23.90
2022-09-12T14:19:11.721Z,23.99
2022-09-12T14:21:57.282Z,23.93
2022-09-12T14:24:46.561Z,23.52
2022-09-12T14:27:42.625Z,23.23
2022-09-12T14:30:30.810Z,23.13
2022-09-12T14:33:20.372Z,23.09
2022-09-12T14:36:11.820Z,23.17
2022-09-12T14:39:01.329Z,23.13
2022-09-12T14:41:46.686Z,23.22
2022-09-12T14:44:33.863Z,23.32
2022-09-12T14:47:25.722Z,23.44
2022-09-12T14:50:21.645Z,23.45
2022-09-12T14:53:37.761Z,23.64
2022-09-12T14:56:39.134Z,23.59
2022-09-12T14:59:44.509Z,23.44
2022-09-12T15:02:29.762Z,23.52
2022-09-12T15:05:18.555Z,23.60
2022-09-12T15:08:03.423Z,23.59
2022-09-12T15:10:48.678Z,23.65
2022-09-12T15:13:40.545Z,23.63
2022-09-12T15:16:25.430Z,23.32
2022-09-12T15:19:11.146Z,23.34
2022-09-12T15:21:56.409Z,23.31
2022-09-12T15:24:41.442Z,23.25
2022-09-12T15:27:26.865Z,23.24
2022-09-12T15:30:13.247Z,23.06
2022-09-12T15:32:58.712Z,23.02
2022-09-12T15:35:44.010Z,23.09
2022-09-12T15:38:29.374Z,23.09
2022-09-12T15:41:18.009Z,23.06
2022-09-12T15:44:10.894Z,23.33
2022-09-12T15:46:55.990Z,23.40
2022-09-12T15:49:41.076Z,23.36
2022-09-12T15:52:26.298Z,23.30
2022-09-12T15:55:21.134Z,23.23
2022-09-12T15:58:07.401Z,23.43
2022-09-12T16:00:52.801Z,23.56
2022-09-12T16:03:37.976Z,23.62
2022-09-12T16:06:23.543Z,23.59
2022-09-12T16:09:08.812Z,23.65
2022-09-12T16:11:54.195Z,23.80
2022-09-12T16:14:42.077Z,23.81
2022-09-12T16:17:27.092Z,23.77
2022-09-12T16:20:12.634Z,23.58
2022-09-12T16:22:57.814Z,23.57
2022-09-12T16:25:43.192Z,23.21
2022-09-12T16:28:29.263Z,22.98
2022-09-12T16:31:14.351Z,22.87
2022-09-12T16:33:59.376Z,23.00
2022-09-12T16:36:44.278Z,23.06
2022-09-12T16:39:29.158Z,23.12
2022-09-12T16:42:16.228Z,23.14
2022-09-12T16:45:01.708Z,23.03
2022-09-12T16:47:46.843Z,22.95
2022-09-12T16:50:31.783Z,23.16
2022-09-12T16:53:16.504Z,23.58
2022-09-12T16:56:01.822Z,23.77
2022-09-12T16:58:47.259Z,23.91
2022-09-12T17:01:32.656Z,23.77
2022-09-12T17:04:21.709Z,23.74
2022-09-12T17:07:08.743Z,23.49
2022-09-12T17:09:54.028Z,23.49
2022-09-12T17:12:38.923Z,23.34
2022-09-12T17:15:24.258Z,23.32
2022-09-12T17:18:09.455Z,23.03
2022-09-12T17:20:54.377Z,22.81
2022-09-12T17:23:40.386Z,22.85
2022-09-12T17:26:25.812Z,22.80
2022-09-12T17:29:14.554Z,22.55
2022-09-12T17:31:59.631Z,22.45
2022-09-12T17:34:44.546Z,22.43
2022-09-12T17:37:29.384Z,22.33
2022-09-12T17:40:14.879Z,22.43
2022-09-12T17:43:00.268Z,22.23
2022-09-12T17:45:45.600Z,22.11
2022-09-12T17:48:30.772Z,21.92
2022-09-12T17:51:15.691Z,22.02
2022-09-12T17:54:10.812Z,21.97
2022-09-12T17:56:56.096Z,21.78
2022-09-12T17:59:40.815Z,21.81
2022-09-12T18:02:26.643Z,21.77
2022-09-12T18:05:12.846Z,21.72
2022-09-12T18:07:57.848Z,21.46
2022-09-12T18:10:42.858Z,21.34
2022-09-12T18:13:27.703Z,21.25
2022-09-12T18:16:13.739Z,21.16
2022-09-12T18:18:59.225Z,21.25
2022-09-12T18:21:45.074Z,21.11
2022-09-12T18:24:30.138Z,21.13
2022-09-12T18:27:14.917Z,21.10
2022-09-12T18:30:20.200Z,20.96
2022-09-12T18:33:04.656Z,20.91
2022-09-12T18:35:49.564Z,20.78
2022-09-12T18:38:34.669Z,20.61
2022-09-12T18:41:21.983Z,20.56
2022-09-12T18:44:07.997Z,20.62
2022-09-12T18:46:52.955Z,20.54
2022-09-12T18:49:38.292Z,20.51
2022-09-12T18:52:23.206Z,20.46
2022-09-12T18:55:08.496Z,20.45
2022-09-12T18:57:55.035Z,20.38
2022-09-12T19:00:40.194Z,20.31
2022-09-12T19:03:25.240Z,20.24
2022-09-12T19:06:19.191Z,20.14
2022-09-12T19:09:08.024Z,20.11
2022-09-12T19:11:53.693Z,19.88
2022-09-12T19:14:39.031Z,19.79
2022-09-12T19:17:24.016Z,19.80
2022-09-12T19:20:09.053Z,19.68
2022-09-12T19:22:53.935Z,19.45
2022-09-12T19:25:38.729Z,19.48
2022-09-12T19:28:23.797Z,19.41
2022-09-12T19:31:11.352Z,19.29
2022-09-12T19:34:00.722Z,19.32
2022-09-12T19:36:47.021Z,19.35
2022-09-12T19:39:32.671Z,19.31
2022-09-12T19:42:17.429Z,19.28
2022-09-12T19:45:02.396Z,19.15
2022-09-12T19:47:47.370Z,19.09
2022-09-12T19:50:32.473Z,19.00
2022-09-12T19:53:18.566Z,18.97
2022-09-12T19:56:05.487Z,18.86
2022-09-12T19:58:55.736Z,18.79
2022-09-12T20:01:41.683Z,18.79
2022-09-12T20:04:26.912Z,18.72
2022-09-12T20:07:11.800Z,18.69
2022-09-12T20:09:56.583Z,18.62
2022-09-12T20:12:41.562Z,18.49
2022-09-12T20:15:26.870Z,18.43
2022-09-12T20:18:12.309Z,18.48
2022-09-12T20:20:57.195Z,18.48
2022-09-12T20:23:42.724Z,18.44
2022-09-12T20:26:28.173Z,18.45
2022-09-12T20:29:13.614Z,18.41
2022-09-12T20:31:58.818Z,18.20
2022-09-12T20:34:43.768Z,18.03
2022-09-12T20:37:30.017Z,17.97
2022-09-12T20:40:15.176Z,17.92
2022-09-12T20:43:00.205Z,17.82
2022-09-12T20:45:45.144Z,17.71
2022-09-12T20:48:30.414Z,17.84
2022-09-12T20:51:15.490Z,17.74
2022-09-12T20:54:01.964Z,17.80
2022-09-12T20:56:47.304Z,17.78
2022-09-12T20:59:32.224Z,17.75
2022-09-12T21:02:17.182Z,17.86
2022-09-12T21:05:02.625Z,17.74
2022-09-12T21:07:48.066Z,17.73
2022-09-12T21:10:32.902Z,17.69
2022-09-12T21:13:18.334Z,17.79
2022-09-12T21:16:04.979Z,17.79
2022-09-12T21:18:58.015Z,17.69
2022-09-12T21:21:42.989Z,17.60
2022-09-12T21:24:27.863Z,17.53
2022-09-12T21:27:12.644Z,17.56
2022-09-12T21:29:57.663Z,17.56
2022-09-12T21:32:43.750Z,17.59
2022-09-12T21:35:28.999Z,17.64
2022-09-12T21:38:18.313Z,17.63
2022-09-12T21:41:12.866Z,17.63
2022-09-12T21:43:57.955Z,17.72
2022-09-12T21:46:42.897Z,17.78
2022-09-12T21:49:28.328Z,17.80
2022-09-12T21:52:13.709Z,17.67
2022-09-12T21:54:58.786Z,17.58
2022-09-12T21:57:43.827Z,17.58
2022-09-12T22:00:29.033Z,17.58
2022-09-12T22:03:13.925Z,17.61
2022-09-12T22:06:00.579Z,17.74
2022-09-12T22:08:45.889Z,17.68
2022-09-12T22:11:30.681Z,17.66
2022-09-12T22:14:15.538Z,17.61
2022-09-12T22:17:00.821Z,17.51
2022-09-12T22:19:45.620Z,17.44
2022-09-12T22:22:30.612Z,17.32
2022-09-12T22:25:15.612Z,17.29
2022-09-12T22:28:01.094Z,17.09
2022-09-12T22:30:49.245Z,17.07
2022-09-12T22:33:34.214Z,17.18
2022-09-12T22:36:19.137Z,17.29
2022-09-12T22:39:04.706Z,17.06
2022-09-12T22:41:50.125Z,16.97
2022-09-12T22:44:35.405Z,16.81
2022-09-12T22:47:20.581Z,16.78
2022-09-12T22:50:06.036Z,16.69
2022-09-12T22:52:52.334Z,16.50
2022-09-12T22:55:37.495Z,16.48
2022-09-12T22:58:22.879Z,16.57
2022-09-12T23:01:08.478Z,16.50
2022-09-12T23:03:53.653Z,16.28
2022-09-12T23:06:39.089Z,16.34
2022-09-12T23:09:24.016Z,16.33
2022-09-12T23:12:08.762Z,16.42
2022-09-12T23:14:53.698Z,16.43
2022-09-12T23:17:38.405Z,16.42
2022-09-12T23:20:23.770Z,16.33
2022-09-12T23:23:08.926Z,16.19
2022-09-12T23:26:17.931Z,16.27
2022-09-12T23:29:04.336Z,16.25
2022-09-12T23:31:49.481Z,16.23
2022-09-12T23:34:34.871Z,16.41
2022-09-12T23:37:19.722Z,16.52
2022-09-12T23:40:05.858Z,16.43
2022-09-12T23:42:51.217Z,16.51
2022-09-12T23:45:36.191Z,16.39
2022-09-12T23:48:21.437Z,16.46
2022-09-12T23:51:06.480Z,16.61
2022-09-12T23:53:51.242Z,16.48
2022-09-12T23:56:36.220Z,16.33
2022-09-12T23:59:21.047Z,16.51
